createdAt,value
2023-03-16T00:00:21.664Z,8.60
2023-03-16T00:03:11.064Z,8.07
2023-03-16T00:05:38.766Z,9.13
2023-03-16T00:08:06.236Z,9.20
2023-03-16T00:10:33.516Z,8.68
2023-03-16T00:13:02.939Z,8.13
2023-03-16T00:15:30.474Z,8.55
2023-03-16T00:17:58.089Z,8.48
2023-03-16T00:20:26.248Z,9.30
2023-03-16T00:22:54.357Z,8.30
2023-03-16T00:25:21.598Z,9.73
2023-03-16T00:27:49.049Z,10.80
2023-03-16T00:30:20.485Z,9.85
2023-03-16T00:32:48.309Z,10.10
2023-03-16T00:35:18.618Z,10.13
2023-03-16T00:37:47.112Z,10.63
2023-03-16T00:40:15.057Z,9.98
2023-03-16T00:42:43.511Z,9.77
2023-03-16T00:45:11.000Z,10.85
2023-03-16T00:47:38.743Z,9.45
2023-03-16T00:50:06.383Z,10.70
2023-03-16T00:52:35.505Z,9.60
2023-03-16T00:55:05.079Z,10.52
2023-03-16T00:57:32.713Z,11.82
2023-03-16T01:00:00.021Z,11.73
2023-03-16T01:02:27.840Z,9.48
2023-03-16T01:04:55.116Z,10.77
2023-03-16T01:07:23.103Z,10.30
2023-03-16T01:09:51.594Z,7.85
2023-03-16T01:12:19.932Z,9.98
2023-03-16T01:14:48.203Z,8.50
2023-03-16T01:17:17.924Z,9.30
2023-03-16T01:19:46.066Z,9.77
2023-03-16T01:22:14.840Z,11.02
2023-03-16T01:24:45.188Z,7.07
2023-03-16T01:27:15.213Z,9.45
2023-03-16T01:29:43.874Z,12.15
2023-03-16T01:32:12.933Z,10.98
2023-03-16T01:34:40.588Z,10.38
2023-03-16T01:37:08.390Z,10.38
2023-03-16T01:39:56.345Z,10.82
2023-03-16T01:42:24.331Z,7.93
2023-03-16T01:45:05.918Z,9.13
2023-03-16T01:47:39.723Z,8.20
2023-03-16T01:50:13.129Z,8.30
2023-03-16T01:52:42.429Z,8.98
2023-03-16T01:55:13.583Z,8.77
2023-03-16T01:57:45.234Z,9.50
2023-03-16T02:00:23.619Z,7.80
2023-03-16T02:03:15.360Z,7.55
2023-03-16T02:06:09.557Z,7.13
2023-03-16T02:08:40.329Z,8.98
2023-03-16T02:11:09.848Z,8.23
2023-03-16T02:13:47.925Z,8.10
2023-03-16T02:16:20.232Z,8.52
2023-03-16T02:18:53.557Z,8.95
2023-03-16T02:21:25.631Z,6.80
2023-03-16T02:23:53.674Z,6.45
2023-03-16T02:26:37.246Z,4.90
2023-03-16T02:29:11.358Z,5.38
2023-03-16T02:31:39.391Z,5.57
2023-03-16T02:34:07.865Z,6.10
2023-03-16T02:36:37.890Z,5.00
2023-03-16T02:39:06.067Z,6.35
2023-03-16T02:41:42.325Z,5.57
2023-03-16T02:44:15.539Z,5.40
2023-03-16T02:46:44.747Z,5.70
2023-03-16T02:49:25.171Z,5.55
2023-03-16T02:51:53.097Z,5.85
2023-03-16T02:54:20.968Z,6.97
2023-03-16T02:56:48.176Z,5.57
2023-03-16T02:59:15.747Z,6.22
2023-03-16T03:01:42.957Z,6.60
2023-03-16T03:04:11.113Z,6.22
2023-03-16T03:06:38.430Z,7.00
2023-03-16T03:09:06.412Z,7.80
2023-03-16T03:11:33.706Z,5.63
2023-03-16T03:14:01.640Z,6.13
2023-03-16T03:16:29.718Z,6.05
2023-03-16T03:18:59.148Z,6.00
2023-03-16T03:21:29.090Z,6.18
2023-03-16T03:23:56.566Z,5.88
2023-03-16T03:26:24.753Z,5.85
2023-03-16T03:28:52.978Z,6.10
2023-03-16T03:31:22.897Z,5.45
2023-03-16T03:33:53.789Z,6.05
2023-03-16T03:36:22.443Z,6.18
2023-03-16T03:38:50.012Z,6.50
2023-03-16T03:41:19.640Z,6.85
2023-03-16T03:43:47.637Z,7.25
2023-03-16T03:46:18.020Z,5.90
2023-03-16T03:48:45.567Z,7.10
2023-03-16T03:51:12.744Z,6.03
2023-03-16T03:54:09.585Z,8.10
2023-03-16T03:57:08.920Z,6.53
2023-03-16T03:59:42.745Z,6.18
2023-03-16T04:02:40.034Z,7.32
2023-03-16T04:05:14.862Z,6.22
2023-03-16T04:07:42.055Z,6.28
2023-03-16T04:10:12.504Z,7.45
2023-03-16T04:12:42.623Z,7.18
2023-03-16T04:15:12.954Z,6.68
2023-03-16T04:17:50.695Z,6.60
2023-03-16T04:20:20.133Z,7.20
2023-03-16T04:22:48.326Z,7.15
2023-03-16T04:25:18.117Z,6.97
2023-03-16T04:27:47.039Z,9.68
2023-03-16T04:30:16.467Z,7.90
2023-03-16T04:32:48.532Z,7.70
2023-03-16T04:35:20.155Z,8.95
2023-03-16T04:37:51.289Z,8.77
2023-03-16T04:40:21.621Z,9.30
2023-03-16T04:42:55.742Z,11.48
2023-03-16T04:45:24.350Z,9.40
2023-03-16T04:47:53.818Z,11.32
2023-03-16T04:50:22.915Z,9.80
2023-03-16T04:52:53.531Z,9.93
2023-03-16T04:55:23.048Z,10.73
2023-03-16T04:57:52.669Z,11.90
2023-03-16T05:00:23.485Z,9.38
2023-03-16T05:03:00.866Z,11.10
2023-03-16T05:05:28.661Z,10.68
2023-03-16T05:07:55.837Z,10.68
2023-03-16T05:10:24.275Z,12.27
2023-03-16T05:12:52.363Z,12.43
2023-03-16T05:15:20.218Z,12.57
2023-03-16T05:17:57.515Z,13.30
2023-03-16T05:20:26.359Z,12.98
2023-03-16T05:22:57.797Z,14.60
2023-03-16T05:25:29.075Z,104.43
2023-03-16T05:27:58.328Z,143.23
2023-03-16T05:30:32.971Z,57.20
2023-03-16T05:33:04.256Z,21.77
2023-03-16T05:35:32.624Z,37.22
2023-03-16T05:38:04.831Z,25.38
2023-03-16T05:40:35.074Z,64.30
2023-03-16T05:43:11.915Z,28.10
2023-03-16T05:45:44.875Z,21.20
2023-03-16T05:48:15.625Z,31.58
2023-03-16T05:50:47.609Z,14.45
2023-03-16T05:53:18.252Z,13.88
2023-03-16T05:55:51.357Z,19.17
2023-03-16T05:58:19.780Z,19.17
2023-03-16T06:00:47.554Z,17.80
2023-03-16T06:03:29.090Z,20.77
2023-03-16T06:05:59.395Z,15.55
2023-03-16T06:08:31.262Z,16.55
2023-03-16T06:11:08.000Z,16.08
2023-03-16T06:13:35.350Z,17.20
2023-03-16T06:16:02.977Z,16.92
2023-03-16T06:18:30.188Z,18.98
2023-03-16T06:20:57.729Z,21.17
2023-03-16T06:23:25.228Z,18.05
2023-03-16T06:25:55.355Z,16.10
2023-03-16T06:28:25.628Z,22.08
2023-03-16T06:30:54.858Z,18.42
2023-03-16T06:33:24.107Z,20.58
2023-03-16T06:35:51.872Z,15.95
2023-03-16T06:38:29.374Z,16.95
2023-03-16T06:41:01.832Z,19.80
2023-03-16T06:43:29.891Z,16.45
2023-03-16T06:54:43.987Z,14.65
2023-03-16T06:57:12.683Z,14.18
2023-03-16T06:59:40.039Z,17.13
2023-03-16T07:02:14.657Z,15.90
2023-03-16T07:05:00.402Z,17.20
2023-03-16T07:07:29.122Z,16.60
2023-03-16T07:09:57.164Z,12.98
2023-03-16T07:12:25.979Z,21.58
2023-03-16T07:14:54.353Z,18.42
2023-03-16T07:17:25.547Z,17.65
2023-03-16T07:19:53.057Z,13.43
2023-03-16T07:22:22.263Z,14.07
2023-03-16T07:24:57.486Z,11.80
2023-03-16T07:27:29.058Z,16.15
2023-03-16T07:29:58.264Z,15.98
2023-03-16T07:32:26.736Z,12.45
2023-03-16T07:34:54.527Z,15.27
2023-03-16T07:37:25.595Z,12.38
2023-03-16T07:39:56.844Z,11.23
2023-03-16T07:42:25.263Z,13.02
2023-03-16T07:45:05.106Z,12.57
2023-03-16T07:47:33.924Z,13.55
2023-03-16T07:50:11.512Z,11.85
2023-03-16T07:52:46.486Z,12.82
2023-03-16T07:55:16.261Z,12.98
2023-03-16T07:57:48.608Z,10.85
2023-03-16T08:00:24.173Z,9.85
2023-03-16T08:02:54.052Z,11.20
2023-03-16T08:05:21.627Z,14.25
2023-03-16T08:07:54.510Z,12.90
2023-03-16T08:10:25.692Z,17.08
2023-03-16T08:13:04.982Z,12.27
2023-03-16T08:15:34.121Z,7.45
2023-03-16T08:18:10.394Z,7.18
2023-03-16T08:20:38.086Z,6.75
2023-03-16T08:23:06.566Z,10.38
2023-03-16T08:25:44.109Z,9.07
2023-03-16T08:28:17.234Z,6.68
2023-03-16T08:30:47.210Z,6.15
2023-03-16T08:33:26.141Z,5.95
2023-03-16T08:35:54.434Z,7.72
2023-03-16T08:38:22.331Z,6.45
2023-03-16T08:40:52.852Z,4.00
2023-03-16T08:43:24.331Z,3.75
2023-03-16T08:45:54.009Z,3.65
2023-03-16T08:48:26.812Z,3.65
2023-03-16T08:50:55.523Z,4.03
2023-03-16T08:53:25.727Z,2.92
2023-03-16T08:55:53.686Z,2.90
2023-03-16T08:58:24.097Z,2.75
2023-03-16T09:00:52.246Z,4.25
2023-03-16T09:03:21.499Z,3.33
2023-03-16T09:05:49.656Z,3.70
2023-03-16T09:08:18.329Z,3.15
2023-03-16T09:10:47.037Z,4.25
2023-03-16T09:13:19.714Z,2.67
2023-03-16T09:15:47.889Z,2.55
2023-03-16T09:18:19.418Z,3.20
2023-03-16T09:20:48.111Z,3.38
2023-03-16T09:23:17.363Z,3.53
2023-03-16T09:25:46.805Z,3.30
2023-03-16T09:28:14.981Z,3.13
2023-03-16T09:36:56.839Z,2.58
2023-03-16T09:39:25.053Z,3.00
2023-03-16T09:42:27.773Z,3.92
2023-03-16T09:45:06.636Z,2.85
2023-03-16T09:47:36.394Z,3.25
2023-03-16T09:50:16.846Z,2.38
2023-03-16T09:52:58.983Z,2.88
2023-03-16T09:55:33.428Z,3.50
2023-03-16T09:58:05.188Z,3.13
2023-03-16T10:00:42.253Z,2.92
2023-03-16T10:03:15.306Z,3.00
2023-03-16T10:05:45.798Z,3.20
2023-03-16T10:08:39.545Z,3.20
2023-03-16T10:11:31.754Z,3.30
2023-03-16T10:14:14.237Z,3.65
2023-03-16T10:16:49.254Z,2.42
2023-03-16T10:19:25.811Z,2.72
2023-03-16T10:22:32.115Z,2.95
2023-03-16T10:25:06.634Z,3.58
2023-03-16T10:27:40.583Z,2.55
2023-03-16T10:30:29.302Z,2.90
2023-03-16T10:33:19.913Z,3.08
2023-03-16T10:36:14.087Z,3.13
2023-03-16T10:38:55.569Z,2.70
2023-03-16T10:41:28.732Z,2.72
2023-03-16T10:44:21.902Z,2.35
2023-03-16T10:46:58.203Z,2.40
2023-03-16T10:49:29.403Z,3.50
2023-03-16T10:52:00.633Z,2.90
2023-03-16T10:54:36.110Z,2.55
2023-03-16T10:57:21.483Z,2.70
2023-03-16T11:00:21.067Z,2.20
2023-03-16T11:02:51.690Z,2.40
2023-03-16T11:05:19.628Z,2.30
2023-03-16T11:07:50.796Z,2.47
2023-03-16T11:10:29.453Z,3.30
2023-03-16T11:13:19.974Z,2.88
2023-03-16T11:15:54.243Z,3.42
2023-03-16T11:18:29.893Z,2.63
2023-03-16T11:21:26.032Z,2.90
2023-03-16T11:23:57.023Z,2.72
2023-03-16T11:26:33.739Z,2.72
2023-03-16T11:29:20.442Z,3.22
2023-03-16T11:31:56.719Z,2.83
2023-03-16T11:34:30.909Z,3.60
2023-03-16T11:37:21.931Z,3.20
2023-03-16T11:40:00.670Z,3.15
2023-03-16T11:42:37.652Z,2.80
2023-03-16T11:45:30.423Z,3.75
2023-03-16T11:48:17.498Z,3.28
2023-03-16T11:50:59.573Z,4.25
2023-03-16T11:53:28.819Z,3.92
2023-03-16T11:56:17.849Z,3.65
2023-03-16T11:59:04.114Z,3.97
2023-03-16T12:02:03.168Z,3.00
2023-03-16T12:04:53.170Z,3.53
2023-03-16T12:07:35.941Z,3.42
2023-03-16T12:10:23.974Z,3.55
2023-03-16T12:13:20.375Z,2.92
2023-03-16T12:16:05.949Z,2.92
2023-03-16T12:18:42.598Z,2.88
2023-03-16T12:21:20.227Z,2.70
2023-03-16T12:23:53.583Z,3.00
2023-03-16T12:26:30.329Z,3.60
2023-03-16T12:29:03.389Z,4.55
2023-03-16T12:31:53.776Z,4.43
2023-03-16T12:34:46.018Z,4.10
2023-03-16T12:37:22.374Z,3.92
2023-03-16T12:40:10.373Z,4.38
2023-03-16T12:42:57.933Z,5.15
2023-03-16T12:45:37.653Z,4.45
2023-03-16T12:48:34.183Z,4.82
2023-03-16T12:53:43.131Z,3.97
2023-03-16T12:56:15.423Z,3.92
2023-03-16T12:58:48.716Z,3.50
2023-03-16T13:01:26.085Z,3.03
2023-03-16T13:04:01.570Z,3.30
2023-03-16T13:06:36.662Z,4.00
2023-03-16T13:09:07.490Z,3.90
2023-03-16T13:11:50.390Z,3.35
2023-03-16T13:14:34.213Z,3.30
2023-03-16T13:19:29.136Z,3.00
2023-03-16T13:22:04.808Z,3.60
2023-03-16T13:24:52.855Z,3.35
2023-03-16T13:27:28.592Z,3.75
2023-03-16T13:30:02.563Z,3.17
2023-03-16T13:32:33.191Z,3.55
2023-03-16T13:35:06.060Z,4.00
2023-03-16T13:37:36.710Z,4.18
2023-03-16T13:40:05.476Z,3.53
2023-03-16T13:42:34.784Z,3.75
2023-03-16T13:45:14.570Z,3.45
2023-03-16T13:47:45.525Z,3.72
2023-03-16T13:50:15.140Z,4.07
2023-03-16T13:52:50.708Z,3.85
2023-03-16T13:55:22.466Z,2.78
2023-03-16T13:57:53.611Z,3.53
2023-03-16T14:00:22.800Z,4.03
2023-03-16T14:02:59.257Z,4.32
2023-03-16T14:05:30.948Z,4.38
2023-03-16T14:08:01.098Z,4.03
2023-03-16T14:10:38.042Z,4.03
2023-03-16T14:13:22.817Z,3.88
2023-03-16T14:15:50.910Z,3.55
2023-03-16T14:18:22.698Z,4.32
2023-03-16T14:20:55.984Z,3.83
2023-03-16T14:23:33.787Z,4.25
2023-03-16T14:26:05.661Z,3.83
2023-03-16T14:28:34.689Z,3.83
2023-03-16T14:31:13.233Z,3.55
2023-03-16T14:33:43.681Z,4.03
2023-03-16T14:36:17.788Z,5.00
2023-03-16T14:38:49.838Z,5.18
2023-03-16T14:41:28.410Z,4.20
2023-03-16T14:44:00.997Z,4.55
2023-03-16T14:46:31.484Z,3.50
2023-03-16T14:49:26.151Z,5.30
2023-03-16T14:51:58.309Z,5.70
2023-03-16T14:54:28.830Z,6.28
2023-03-16T14:57:01.301Z,6.53
2023-03-16T14:59:30.147Z,6.00
2023-03-16T15:01:59.630Z,4.90
2023-03-16T15:04:34.601Z,7.60
2023-03-16T15:07:14.685Z,8.65
2023-03-16T15:09:46.331Z,6.50
2023-03-16T15:12:19.822Z,5.72
2023-03-16T15:15:07.115Z,7.57
2023-03-16T15:17:34.361Z,9.07
2023-03-16T15:20:02.065Z,7.88
2023-03-16T15:22:37.083Z,7.32
2023-03-16T15:25:30.915Z,5.83
2023-03-16T15:27:58.816Z,7.63
2023-03-16T15:30:29.224Z,6.25
2023-03-16T15:32:56.844Z,8.88
2023-03-16T15:35:24.401Z,6.45
2023-03-16T15:37:51.732Z,7.00
2023-03-16T15:40:29.512Z,5.47
2023-03-16T15:42:57.864Z,5.78
2023-03-16T15:45:26.436Z,6.15
2023-03-16T15:47:55.486Z,6.10
2023-03-16T15:50:25.009Z,5.82
2023-03-16T15:52:58.297Z,5.70
2023-03-16T15:55:44.555Z,6.82
2023-03-16T15:58:21.641Z,10.18
2023-03-16T16:00:49.643Z,7.45
2023-03-16T16:03:17.169Z,6.43
2023-03-16T16:05:44.733Z,5.80
2023-03-16T16:08:11.925Z,4.90
2023-03-16T16:10:41.645Z,6.38
2023-03-16T16:13:17.410Z,6.85
2023-03-16T16:15:47.204Z,6.50
2023-03-16T16:18:32.150Z,6.15
2023-03-16T16:21:01.879Z,8.80
2023-03-16T16:23:31.251Z,12.18
2023-03-16T16:26:07.592Z,17.85
2023-03-16T16:28:35.370Z,17.52
2023-03-16T16:31:03.425Z,23.02
2023-03-16T16:33:33.419Z,41.35
2023-03-16T16:36:04.256Z,88.70
2023-03-16T16:38:32.127Z,40.85
2023-03-16T16:41:02.147Z,40.90
2023-03-16T16:43:48.298Z,48.15
2023-03-16T16:46:19.446Z,45.00
2023-03-16T16:48:52.672Z,58.25
2023-03-16T16:51:23.477Z,47.90
2023-03-16T16:53:53.035Z,37.58
2023-03-16T16:56:27.858Z,41.15
2023-03-16T16:58:57.251Z,42.35
2023-03-16T17:01:33.221Z,31.10
2023-03-16T17:04:02.123Z,30.52
2023-03-16T17:06:30.176Z,41.90
2023-03-16T17:08:57.690Z,50.88
2023-03-16T17:11:31.125Z,89.28
2023-03-16T17:14:02.451Z,51.38
2023-03-16T17:16:32.412Z,47.78
2023-03-16T17:18:59.980Z,32.47
2023-03-16T17:21:30.177Z,33.35
2023-03-16T17:23:57.874Z,41.65
2023-03-16T17:26:29.314Z,48.83
2023-03-16T17:29:17.713Z,64.60
2023-03-16T17:31:45.373Z,30.45
2023-03-16T17:34:19.110Z,18.52
2023-03-16T17:36:47.172Z,12.88
2023-03-16T17:39:26.076Z,13.32
2023-03-16T17:42:07.903Z,14.10
2023-03-16T17:44:41.289Z,24.00
2023-03-16T17:47:18.613Z,28.95
2023-03-16T17:49:49.028Z,44.08
2023-03-16T17:52:19.810Z,44.45
2023-03-16T17:54:48.555Z,34.55
2023-03-16T17:57:19.428Z,33.85
2023-03-16T17:59:47.429Z,37.83
2023-03-16T18:02:37.549Z,38.58
2023-03-16T18:05:08.911Z,37.03
2023-03-16T18:07:36.789Z,42.80
2023-03-16T18:10:04.533Z,42.85
2023-03-16T18:12:32.427Z,89.22
2023-03-16T18:14:59.829Z,79.32
2023-03-16T18:17:31.216Z,80.10
2023-03-16T18:19:59.315Z,70.78
2023-03-16T18:22:28.161Z,58.65
2023-03-16T18:24:55.981Z,54.15
2023-03-16T18:27:24.609Z,53.85
2023-03-16T18:29:51.820Z,52.85
2023-03-16T18:32:30.407Z,56.20
2023-03-16T18:34:58.642Z,62.33
2023-03-16T18:37:30.369Z,70.10
2023-03-16T18:39:58.075Z,73.72
2023-03-16T18:42:29.801Z,76.07
2023-03-16T18:44:57.311Z,78.82
2023-03-16T18:47:31.579Z,80.35
2023-03-16T18:50:00.372Z,80.75
2023-03-16T18:52:31.139Z,85.43
2023-03-16T18:54:58.547Z,87.90
2023-03-16T18:57:28.330Z,95.57
2023-03-16T18:59:56.083Z,92.93
2023-03-16T19:02:32.819Z,97.03
2023-03-16T19:05:04.654Z,86.22
2023-03-16T19:07:36.668Z,90.07
2023-03-16T19:10:26.831Z,93.82
2023-03-16T19:12:55.603Z,94.22
2023-03-16T19:15:29.174Z,93.65
2023-03-16T19:17:58.493Z,95.75
2023-03-16T19:20:29.047Z,99.72
2023-03-16T19:23:01.675Z,98.60
2023-03-16T19:25:32.447Z,103.18
2023-03-16T19:28:00.632Z,102.32
2023-03-16T19:30:30.606Z,90.22
2023-03-16T19:32:59.014Z,89.25
2023-03-16T19:35:48.586Z,109.20
2023-03-16T19:38:16.967Z,85.32
2023-03-16T19:40:45.220Z,117.72
2023-03-16T19:43:18.760Z,82.50
2023-03-16T19:45:47.257Z,66.88
2023-03-16T19:48:21.567Z,72.88
2023-03-16T19:50:50.552Z,75.80
2023-03-16T19:53:20.880Z,73.97
2023-03-16T19:55:50.456Z,58.63
2023-03-16T19:58:27.174Z,55.90
2023-03-16T20:00:59.210Z,66.55
2023-03-16T20:03:27.716Z,51.45
2023-03-16T20:05:55.149Z,50.80
2023-03-16T20:08:27.007Z,49.20
2023-03-16T20:11:04.728Z,45.58
2023-03-16T20:13:36.442Z,42.97
2023-03-16T20:16:04.334Z,39.42
2023-03-16T20:18:33.144Z,40.53
2023-03-16T20:21:00.461Z,45.65
2023-03-16T20:23:30.203Z,50.25
2023-03-16T20:26:01.980Z,47.60
2023-03-16T20:28:36.519Z,53.60
2023-03-16T20:31:08.391Z,54.92
2023-03-16T20:33:36.452Z,53.05
2023-03-16T20:36:06.996Z,59.63
2023-03-16T20:38:34.745Z,68.38
2023-03-16T20:41:02.724Z,74.65
2023-03-16T20:43:32.941Z,76.97
2023-03-16T20:46:02.591Z,73.82
2023-03-16T20:48:30.257Z,77.32
2023-03-16T20:51:00.212Z,74.82
2023-03-16T20:53:27.968Z,64.78
2023-03-16T20:55:56.747Z,69.57
2023-03-16T20:58:28.141Z,80.05
2023-03-16T21:00:57.957Z,74.95
2023-03-16T21:03:28.698Z,79.47
2023-03-16T21:05:59.831Z,85.40
2023-03-16T21:08:28.190Z,94.95
2023-03-16T21:10:57.301Z,101.22
2023-03-16T21:13:31.302Z,117.60
2023-03-16T21:16:01.801Z,108.60
2023-03-16T21:18:30.777Z,105.18
2023-03-16T21:20:59.015Z,104.88
2023-03-16T21:23:26.692Z,105.05
2023-03-16T21:25:57.695Z,96.95
2023-03-16T21:28:28.009Z,88.75
2023-03-16T21:30:57.805Z,88.95
2023-03-16T21:33:36.042Z,91.18
2023-03-16T21:36:06.334Z,83.38
2023-03-16T21:38:34.686Z,90.72
2023-03-16T21:41:01.978Z,88.97
2023-03-16T21:43:29.757Z,87.10
2023-03-16T21:45:57.772Z,82.82
2023-03-16T21:48:36.452Z,84.90
2023-03-16T21:51:07.155Z,81.95
2023-03-16T21:53:34.774Z,84.90
2023-03-16T21:56:02.178Z,83.88
2023-03-16T21:58:29.854Z,80.68
2023-03-16T22:00:58.537Z,81.30
2023-03-16T22:03:37.863Z,82.38
2023-03-16T22:06:15.163Z,78.82
2023-03-16T22:08:43.101Z,78.10
2023-03-16T22:11:20.170Z,68.22
2023-03-16T22:13:48.526Z,67.47
2023-03-16T22:16:19.063Z,158.25
2023-03-16T22:18:49.395Z,97.90
2023-03-16T22:21:34.146Z,85.47
2023-03-16T22:24:03.201Z,71.30
2023-03-16T22:26:30.405Z,71.55
2023-03-16T22:29:00.702Z,65.13
2023-03-16T22:31:37.173Z,62.30
2023-03-16T22:34:05.380Z,60.55
2023-03-16T22:36:34.013Z,66.28
2023-03-16T22:39:12.396Z,74.45
2023-03-16T22:41:39.766Z,74.80
2023-03-16T22:44:20.773Z,72.32
2023-03-16T22:46:50.956Z,79.35
2023-03-16T22:49:28.874Z,74.88
2023-03-16T22:51:57.749Z,79.32
2023-03-16T22:54:28.527Z,79.55
2023-03-16T22:56:55.973Z,88.05
2023-03-16T22:59:25.539Z,91.05
2023-03-16T23:01:52.954Z,107.82
2023-03-16T23:04:23.277Z,106.30
2023-03-16T23:06:52.930Z,98.50
2023-03-16T23:09:32.583Z,94.60
2023-03-16T23:12:01.630Z,97.45
2023-03-16T23:14:33.096Z,98.07
2023-03-16T23:17:01.152Z,104.45
2023-03-16T23:19:32.421Z,101.55
2023-03-16T23:22:05.179Z,100.03
2023-03-16T23:24:33.681Z,101.63
2023-03-16T23:27:01.925Z,101.95
2023-03-16T23:29:30.243Z,111.38
2023-03-16T23:31:57.924Z,100.78
2023-03-16T23:34:26.375Z,93.50
2023-03-16T23:36:53.793Z,99.45
2023-03-16T23:39:21.375Z,102.50
2023-03-16T23:41:49.993Z,105.32
2023-03-16T23:44:27.627Z,102.18
2023-03-16T23:46:54.854Z,87.90
2023-03-16T23:49:25.694Z,90.40
2023-03-16T23:51:53.560Z,87.97
2023-03-16T23:54:24.220Z,93.15
2023-03-16T23:56:52.469Z,97.43
2023-03-16T23:59:21.347Z,94.97
